sensor_id;sensor_type;location;lat;lon;timestamp;pressure;altitude;pressure_sealevel;temperature
71564;BMP180;59391;52.504;13.438;2022-12-01T00:01:07;102408.00;;;6.40
71564;BMP180;59391;52.504;13.438;2022-12-01T00:03:33;102414.00;;;6.40
71564;BMP180;59391;52.504;13.438;2022-12-01T00:06:02;102415.00;;;6.40
71564;BMP180;59391;52.504;13.438;2022-12-01T00:08:28;102410.00;;;6.40
71564;BMP180;59391;52.504;13.438;2022-12-01T00:10:55;102412.00;;;6.40
71564;BMP180;59391;52.504;13.438;2022-12-01T00:13:21;102416.00;;;6.40
71564;BMP180;59391;52.504;13.438;2022-12-01T00:15:47;102414.00;;;6.40
71564;BMP180;59391;52.504;13.438;2022-12-01T00:18:12;102407.00;;;6.30
71564;BMP180;59391;52.504;13.438;2022-12-01T00:20:38;102408.00;;;6.20
71564;BMP180;59391;52.504;13.438;2022-12-01T00:23:04;102406.00;;;6.20
71564;BMP180;59391;52.504;13.438;2022-12-01T00:25:31;102406.00;;;6.20
71564;BMP180;59391;52.504;13.438;2022-12-01T00:27:56;102412.00;;;6.20
71564;BMP180;59391;52.504;13.438;2022-12-01T00:30:23;102416.00;;;6.20
71564;BMP180;59391;52.504;13.438;2022-12-01T00:32:48;102407.00;;;6.30
71564;BMP180;59391;52.504;13.438;2022-12-01T00:35:15;102408.00;;;6.30
71564;BMP180;59391;52.504;13.438;2022-12-01T00:37:41;102420.00;;;6.30
71564;BMP180;59391;52.504;13.438;2022-12-01T00:40:09;102407.00;;;6.30
71564;BMP180;59391;52.504;13.438;2022-12-01T00:42:35;102414.00;;;6.30
71564;BMP180;59391;52.504;13.438;2022-12-01T00:45:01;102398.00;;;6.20
71564;BMP180;59391;52.504;13.438;2022-12-01T00:47:26;102411.00;;;6.20
71564;BMP180;59391;52.504;13.438;2022-12-01T00:49:52;102414.00;;;6.10
71564;BMP180;59391;52.504;13.438;2022-12-01T00:52:18;102419.00;;;6.10
71564;BMP180;59391;52.504;13.438;2022-12-01T00:54:45;102420.00;;;6.10
71564;BMP180;59391;52.504;13.438;2022-12-01T00:57:11;102413.00;;;6.10
71564;BMP180;59391;52.504;13.438;2022-12-01T00:59:37;102415.00;;;6.10
71564;BMP180;59391;52.504;13.438;2022-12-01T01:02:05;102415.00;;;6.10
71564;BMP180;59391;52.504;13.438;2022-12-01T01:04:33;102421.00;;;6.10
71564;BMP180;59391;52.504;13.438;2022-12-01T01:06:59;102419.00;;;6.10
71564;BMP180;59391;52.504;13.438;2022-12-01T01:09:25;102432.00;;;6.10
71564;BMP180;59391;52.504;13.438;2022-12-01T01:11:52;102429.00;;;6.10
71564;BMP180;59391;52.504;13.438;2022-12-01T01:14:18;102415.00;;;6.10
71564;BMP180;59391;52.504;13.438;2022-12-01T01:16:44;102426.00;;;6.10
71564;BMP180;59391;52.504;13.438;2022-12-01T01:19:09;102428.00;;;6.10
71564;BMP180;59391;52.504;13.438;2022-12-01T01:21:35;102428.00;;;6.00
71564;BMP180;59391;52.504;13.438;2022-12-01T01:24:00;102425.00;;;6.10
71564;BMP180;59391;52.504;13.438;2022-12-01T01:26:31;102423.00;;;6.10
71564;BMP180;59391;52.504;13.438;2022-12-01T01:29:00;102423.00;;;6.00
71564;BMP180;59391;52.504;13.438;2022-12-01T01:31:28;102432.00;;;6.00
71564;BMP180;59391;52.504;13.438;2022-12-01T01:33:56;102413.00;;;6.00
71564;BMP180;59391;52.504;13.438;2022-12-01T01:36:22;102424.00;;;6.00
71564;BMP180;59391;52.504;13.438;2022-12-01T01:38:49;102419.00;;;6.00
71564;BMP180;59391;52.504;13.438;2022-12-01T01:41:17;102437.00;;;6.00
71564;BMP180;59391;52.504;13.438;2022-12-01T01:43:50;102433.00;;;6.00
71564;BMP180;59391;52.504;13.438;2022-12-01T01:46:17;102428.00;;;6.00
71564;BMP180;59391;52.504;13.438;2022-12-01T01:48:50;102435.00;;;6.00
71564;BMP180;59391;52.504;13.438;2022-12-01T01:51:24;102422.00;;;6.10
71564;BMP180;59391;52.504;13.438;2022-12-01T01:53:57;102424.00;;;6.10
71564;BMP180;59391;52.504;13.438;2022-12-01T01:56:24;102429.00;;;6.10
71564;BMP180;59391;52.504;13.438;2022-12-01T01:58:51;102435.00;;;6.10
71564;BMP180;59391;52.504;13.438;2022-12-01T02:01:17;102431.00;;;6.10
71564;BMP180;59391;52.504;13.438;2022-12-01T02:03:44;102421.00;;;6.10
71564;BMP180;59391;52.504;13.438;2022-12-01T02:06:10;102420.00;;;6.10
71564;BMP180;59391;52.504;13.438;2022-12-01T02:08:36;102409.00;;;6.20
71564;BMP180;59391;52.504;13.438;2022-12-01T02:12:11;102421.00;;;6.20
71564;BMP180;59391;52.504;13.438;2022-12-01T02:17:52;102417.00;;;6.10
71564;BMP180;59391;52.504;13.438;2022-12-01T02:21:01;102398.00;;;6.10
71564;BMP180;59391;52.504;13.438;2022-12-01T02:24:17;102404.00;;;6.10
71564;BMP180;59391;52.504;13.438;2022-12-01T02:27:01;102400.00;;;6.10
71564;BMP180;59391;52.504;13.438;2022-12-01T02:29:40;102408.00;;;6.00
71564;BMP180;59391;52.504;13.438;2022-12-01T02:35:15;102409.00;;;6.00
71564;BMP180;59391;52.504;13.438;2022-12-01T02:38:11;102412.00;;;6.00
71564;BMP180;59391;52.504;13.438;2022-12-01T02:40:46;102401.00;;;6.00
71564;BMP180;59391;52.504;13.438;2022-12-01T02:43:38;102401.00;;;6.00
71564;BMP180;59391;52.504;13.438;2022-12-01T02:46:18;102393.00;;;6.00
71564;BMP180;59391;52.504;13.438;2022-12-01T02:48:50;102411.00;;;5.90
71564;BMP180;59391;52.504;13.438;2022-12-01T02:51:26;102397.00;;;5.90
71564;BMP180;59391;52.504;13.438;2022-12-01T02:53:55;102401.00;;;5.90
71564;BMP180;59391;52.504;13.438;2022-12-01T02:56:22;102415.00;;;5.90
71564;BMP180;59391;52.504;13.438;2022-12-01T02:58:49;102394.00;;;5.90
71564;BMP180;59391;52.504;13.438;2022-12-01T03:01:33;102402.00;;;5.90
71564;BMP180;59391;52.504;13.438;2022-12-01T03:07:49;102401.00;;;5.80
71564;BMP180;59391;52.504;13.438;2022-12-01T03:10:44;102406.00;;;5.70
71564;BMP180;59391;52.504;13.438;2022-12-01T03:13:50;102408.00;;;5.70
71564;BMP180;59391;52.504;13.438;2022-12-01T03:16:50;102401.00;;;5.70
71564;BMP180;59391;52.504;13.438;2022-12-01T03:22:20;102397.00;;;5.60
71564;BMP180;59391;52.504;13.438;2022-12-01T03:24:53;102404.00;;;5.60
71564;BMP180;59391;52.504;13.438;2022-12-01T03:27:26;102397.00;;;5.60
71564;BMP180;59391;52.504;13.438;2022-12-01T03:29:56;102405.00;;;5.60
71564;BMP180;59391;52.504;13.438;2022-12-01T03:32:45;102403.00;;;5.60
71564;BMP180;59391;52.504;13.438;2022-12-01T03:35:22;102390.00;;;5.60
71564;BMP180;59391;52.504;13.438;2022-12-01T03:38:07;102396.00;;;5.60
71564;BMP180;59391;52.504;13.438;2022-12-01T03:40:38;102401.00;;;5.60
71564;BMP180;59391;52.504;13.438;2022-12-01T03:43:13;102400.00;;;5.60
71564;BMP180;59391;52.504;13.438;2022-12-01T03:46:03;102401.00;;;5.60
71564;BMP180;59391;52.504;13.438;2022-12-01T03:48:30;102409.00;;;5.60
71564;BMP180;59391;52.504;13.438;2022-12-01T03:51:58;102414.00;;;5.60
71564;BMP180;59391;52.504;13.438;2022-12-01T03:54:17;102412.00;;;5.60
71564;BMP180;59391;52.504;13.438;2022-12-01T03:56:54;102410.00;;;5.60
71564;BMP180;59391;52.504;13.438;2022-12-01T03:59:23;102409.00;;;5.60
71564;BMP180;59391;52.504;13.438;2022-12-01T04:01:50;102410.00;;;5.60
71564;BMP180;59391;52.504;13.438;2022-12-01T04:04:16;102413.00;;;5.60
71564;BMP180;59391;52.504;13.438;2022-12-01T04:06:46;102397.00;;;5.40
71564;BMP180;59391;52.504;13.438;2022-12-01T04:09:13;102422.00;;;5.50
71564;BMP180;59391;52.504;13.438;2022-12-01T04:11:39;102416.00;;;5.60
71564;BMP180;59391;52.504;13.438;2022-12-01T04:14:23;102415.00;;;5.60
71564;BMP180;59391;52.504;13.438;2022-12-01T04:16:49;102420.00;;;5.60
71564;BMP180;59391;52.504;13.438;2022-12-01T04:19:14;102386.00;;;5.60
71564;BMP180;59391;52.504;13.438;2022-12-01T04:21:40;102422.00;;;5.60
71564;BMP180;59391;52.504;13.438;2022-12-01T04:24:06;102420.00;;;5.60
71564;BMP180;59391;52.504;13.438;2022-12-01T04:26:35;102413.00;;;5.60
71564;BMP180;59391;52.504;13.438;2022-12-01T04:29:06;102410.00;;;5.70
71564;BMP180;59391;52.504;13.438;2022-12-01T04:31:32;102389.00;;;5.70
71564;BMP180;59391;52.504;13.438;2022-12-01T04:33:58;102409.00;;;5.70
71564;BMP180;59391;52.504;13.438;2022-12-01T04:36:33;102366.00;;;5.80
71564;BMP180;59391;52.504;13.438;2022-12-01T04:39:00;102352.00;;;5.80
71564;BMP180;59391;52.504;13.438;2022-12-01T04:41:25;102346.00;;;5.90
71564;BMP180;59391;52.504;13.438;2022-12-01T04:43:53;102429.00;;;5.90
71564;BMP180;59391;52.504;13.438;2022-12-01T04:46:20;102420.00;;;5.90
71564;BMP180;59391;52.504;13.438;2022-12-01T04:48:46;102371.00;;;5.70
71564;BMP180;59391;52.504;13.438;2022-12-01T04:51:12;102371.00;;;5.90
71564;BMP180;59391;52.504;13.438;2022-12-01T04:53:38;102341.00;;;5.80
71564;BMP180;59391;52.504;13.438;2022-12-01T04:56:12;102335.00;;;5.90
71564;BMP180;59391;52.504;13.438;2022-12-01T04:58:39;102404.00;;;5.90
71564;BMP180;59391;52.504;13.438;2022-12-01T05:01:10;102384.00;;;5.80
71564;BMP180;59391;52.504;13.438;2022-12-01T05:03:48;102333.00;;;5.60
71564;BMP180;59391;52.504;13.438;2022-12-01T05:06:18;102453.00;;;5.90
71564;BMP180;59391;52.504;13.438;2022-12-01T05:08:48;102476.00;;;5.80
71564;BMP180;59391;52.504;13.438;2022-12-01T05:11:18;102352.00;;;5.90
71564;BMP180;59391;52.504;13.438;2022-12-01T05:13:48;102375.00;;;5.90
71564;BMP180;59391;52.504;13.438;2022-12-01T05:16:23;102378.00;;;5.80
71564;BMP180;59391;52.504;13.438;2022-12-01T05:18:53;102361.00;;;5.80
71564;BMP180;59391;52.504;13.438;2022-12-01T05:21:39;102359.00;;;5.70
71564;BMP180;59391;52.504;13.438;2022-12-01T05:24:06;102438.00;;;5.70
71564;BMP180;59391;52.504;13.438;2022-12-01T05:26:33;102455.00;;;5.30
71564;BMP180;59391;52.504;13.438;2022-12-01T05:28:59;102357.00;;;5.50
71564;BMP180;59391;52.504;13.438;2022-12-01T05:31:31;102392.00;;;5.60
71564;BMP180;59391;52.504;13.438;2022-12-01T05:33:57;102452.00;;;5.50
71564;BMP180;59391;52.504;13.438;2022-12-01T05:36:26;102449.00;;;5.50
71564;BMP180;59391;52.504;13.438;2022-12-01T05:38:52;102388.00;;;5.50
71564;BMP180;59391;52.504;13.438;2022-12-01T05:41:23;102388.00;;;5.50
71564;BMP180;59391;52.504;13.438;2022-12-01T05:43:52;102370.00;;;5.50
71564;BMP180;59391;52.504;13.438;2022-12-01T05:46:18;102357.00;;;5.50
71564;BMP180;59391;52.504;13.438;2022-12-01T05:48:44;102393.00;;;5.50
71564;BMP180;59391;52.504;13.438;2022-12-01T05:51:12;102362.00;;;5.50
71564;BMP180;59391;52.504;13.438;2022-12-01T05:53:42;102334.00;;;5.50
71564;BMP180;59391;52.504;13.438;2022-12-01T05:56:08;102439.00;;;5.20
71564;BMP180;59391;52.504;13.438;2022-12-01T05:58:34;102458.00;;;5.50
71564;BMP180;59391;52.504;13.438;2022-12-01T06:01:01;102429.00;;;5.50
71564;BMP180;59391;52.504;13.438;2022-12-01T06:03:26;102460.00;;;5.50
71564;BMP180;59391;52.504;13.438;2022-12-01T06:05:52;102396.00;;;5.50
71564;BMP180;59391;52.504;13.438;2022-12-01T06:08:18;102446.00;;;5.50
71564;BMP180;59391;52.504;13.438;2022-12-01T06:10:50;102397.00;;;5.50
71564;BMP180;59391;52.504;13.438;2022-12-01T06:13:15;102446.00;;;5.60
71564;BMP180;59391;52.504;13.438;2022-12-01T06:15:41;102478.00;;;5.50
71564;BMP180;59391;52.504;13.438;2022-12-01T06:18:07;102433.00;;;5.50
71564;BMP180;59391;52.504;13.438;2022-12-01T06:20:34;102376.00;;;5.50
71564;BMP180;59391;52.504;13.438;2022-12-01T06:23:02;102486.00;;;5.40
71564;BMP180;59391;52.504;13.438;2022-12-01T06:25:28;102376.00;;;5.30
71564;BMP180;59391;52.504;13.438;2022-12-01T06:28:05;102409.00;;;5.50
71564;BMP180;59391;52.504;13.438;2022-12-01T06:30:44;102486.00;;;5.50
71564;BMP180;59391;52.504;13.438;2022-12-01T06:33:11;102409.00;;;5.50
71564;BMP180;59391;52.504;13.438;2022-12-01T06:35:42;102408.00;;;5.50
71564;BMP180;59391;52.504;13.438;2022-12-01T06:38:10;102447.00;;;5.50
71564;BMP180;59391;52.504;13.438;2022-12-01T06:40:36;102408.00;;;5.40
71564;BMP180;59391;52.504;13.438;2022-12-01T06:43:04;102424.00;;;5.50
71564;BMP180;59391;52.504;13.438;2022-12-01T06:45:31;102482.00;;;5.60
71564;BMP180;59391;52.504;13.438;2022-12-01T06:47:57;102448.00;;;5.40
71564;BMP180;59391;52.504;13.438;2022-12-01T06:50:23;102486.00;;;5.50
71564;BMP180;59391;52.504;13.438;2022-12-01T06:52:53;102481.00;;;5.50
71564;BMP180;59391;52.504;13.438;2022-12-01T06:55:19;102422.00;;;5.60
71564;BMP180;59391;52.504;13.438;2022-12-01T06:57:45;102457.00;;;5.60
71564;BMP180;59391;52.504;13.438;2022-12-01T07:00:12;102448.00;;;5.70
71564;BMP180;59391;52.504;13.438;2022-12-01T07:02:38;102510.00;;;5.70
71564;BMP180;59391;52.504;13.438;2022-12-01T07:05:04;102373.00;;;5.70
71564;BMP180;59391;52.504;13.438;2022-12-01T07:07:30;102490.00;;;5.60
71564;BMP180;59391;52.504;13.438;2022-12-01T07:09:58;102468.00;;;5.70
71564;BMP180;59391;52.504;13.438;2022-12-01T07:12:23;102406.00;;;5.80
71564;BMP180;59391;52.504;13.438;2022-12-01T07:14:49;102383.00;;;5.80
71564;BMP180;59391;52.504;13.438;2022-12-01T07:17:15;102461.00;;;5.80
71564;BMP180;59391;52.504;13.438;2022-12-01T07:19:40;102441.00;;;5.80
71564;BMP180;59391;52.504;13.438;2022-12-01T07:22:06;102416.00;;;5.80
71564;BMP180;59391;52.504;13.438;2022-12-01T07:24:32;102430.00;;;5.80
71564;BMP180;59391;52.504;13.438;2022-12-01T07:26:58;102420.00;;;5.80
71564;BMP180;59391;52.504;13.438;2022-12-01T07:29:24;102432.00;;;5.90
71564;BMP180;59391;52.504;13.438;2022-12-01T07:31:50;102463.00;;;5.90
71564;BMP180;59391;52.504;13.438;2022-12-01T07:34:21;102422.00;;;5.90
71564;BMP180;59391;52.504;13.438;2022-12-01T07:36:50;102479.00;;;6.00
71564;BMP180;59391;52.504;13.438;2022-12-01T07:39:19;102426.00;;;6.00
71564;BMP180;59391;52.504;13.438;2022-12-01T07:41:45;102441.00;;;6.00
71564;BMP180;59391;52.504;13.438;2022-12-01T07:44:11;102433.00;;;6.00
71564;BMP180;59391;52.504;13.438;2022-12-01T07:46:43;102449.00;;;6.00
71564;BMP180;59391;52.504;13.438;2022-12-01T07:49:09;102446.00;;;5.80
71564;BMP180;59391;52.504;13.438;2022-12-01T07:51:41;102479.00;;;6.00
71564;BMP180;59391;52.504;13.438;2022-12-01T07:54:06;102503.00;;;6.10
71564;BMP180;59391;52.504;13.438;2022-12-01T07:56:35;102438.00;;;6.10
71564;BMP180;59391;52.504;13.438;2022-12-01T07:59:08;102526.00;;;6.10
71564;BMP180;59391;52.504;13.438;2022-12-01T08:01:34;102504.00;;;6.10
71564;BMP180;59391;52.504;13.438;2022-12-01T08:04:02;102466.00;;;6.00
71564;BMP180;59391;52.504;13.438;2022-12-01T08:06:33;102405.00;;;5.80
71564;BMP180;59391;52.504;13.438;2022-12-01T08:08:59;102443.00;;;6.00
71564;BMP180;59391;52.504;13.438;2022-12-01T08:11:26;102513.00;;;6.00
71564;BMP180;59391;52.504;13.438;2022-12-01T08:13:54;102483.00;;;6.00
71564;BMP180;59391;52.504;13.438;2022-12-01T08:16:22;102461.00;;;5.90
71564;BMP180;59391;52.504;13.438;2022-12-01T08:18:49;102516.00;;;5.90
71564;BMP180;59391;52.504;13.438;2022-12-01T08:21:19;102528.00;;;6.00
71564;BMP180;59391;52.504;13.438;2022-12-01T08:23:46;102484.00;;;5.90
71564;BMP180;59391;52.504;13.438;2022-12-01T08:26:17;102506.00;;;6.00
71564;BMP180;59391;52.504;13.438;2022-12-01T08:28:44;102523.00;;;6.00
71564;BMP180;59391;52.504;13.438;2022-12-01T08:31:25;102493.00;;;6.10
71564;BMP180;59391;52.504;13.438;2022-12-01T08:33:52;102511.00;;;6.10
71564;BMP180;59391;52.504;13.438;2022-12-01T08:36:19;102493.00;;;6.10
71564;BMP180;59391;52.504;13.438;2022-12-01T08:38:49;102512.00;;;6.10
71564;BMP180;59391;52.504;13.438;2022-12-01T08:41:16;102518.00;;;6.10
71564;BMP180;59391;52.504;13.438;2022-12-01T08:43:42;102513.00;;;6.10
71564;BMP180;59391;52.504;13.438;2022-12-01T08:46:10;102517.00;;;6.10
71564;BMP180;59391;52.504;13.438;2022-12-01T08:48:37;102517.00;;;6.10
71564;BMP180;59391;52.504;13.438;2022-12-01T08:51:12;102498.00;;;6.10
71564;BMP180;59391;52.504;13.438;2022-12-01T08:53:42;102517.00;;;6.10
71564;BMP180;59391;52.504;13.438;2022-12-01T08:56:15;102510.00;;;6.20
71564;BMP180;59391;52.504;13.438;2022-12-01T08:58:42;102524.00;;;6.10
71564;BMP180;59391;52.504;13.438;2022-12-01T09:01:16;102525.00;;;6.20
71564;BMP180;59391;52.504;13.438;2022-12-01T09:03:45;102515.00;;;6.00
71564;BMP180;59391;52.504;13.438;2022-12-01T09:06:18;102519.00;;;6.10
71564;BMP180;59391;52.504;13.438;2022-12-01T09:08:47;102523.00;;;6.10
71564;BMP180;59391;52.504;13.438;2022-12-01T09:11:17;102536.00;;;6.10
71564;BMP180;59391;52.504;13.438;2022-12-01T09:13:46;102526.00;;;6.10
71564;BMP180;59391;52.504;13.438;2022-12-01T09:16:15;102530.00;;;6.10
71564;BMP180;59391;52.504;13.438;2022-12-01T09:18:43;102522.00;;;6.10
71564;BMP180;59391;52.504;13.438;2022-12-01T09:21:20;102529.00;;;6.10
71564;BMP180;59391;52.504;13.438;2022-12-01T09:23:47;102499.00;;;6.10
71564;BMP180;59391;52.504;13.438;2022-12-01T09:26:17;102515.00;;;6.10
71564;BMP180;59391;52.504;13.438;2022-12-01T09:28:45;102479.00;;;6.20
71564;BMP180;59391;52.504;13.438;2022-12-01T09:31:13;102511.00;;;6.20
71564;BMP180;59391;52.504;13.438;2022-12-01T09:33:39;102512.00;;;6.20
71564;BMP180;59391;52.504;13.438;2022-12-01T09:36:07;102508.00;;;6.00
71564;BMP180;59391;52.504;13.438;2022-12-01T09:38:34;102521.00;;;6.20
71564;BMP180;59391;52.504;13.438;2022-12-01T09:41:22;102522.00;;;6.20
71564;BMP180;59391;52.504;13.438;2022-12-01T09:44:18;102515.00;;;6.30
71564;BMP180;59391;52.504;13.438;2022-12-01T09:47:23;102512.00;;;6.30
71564;BMP180;59391;52.504;13.438;2022-12-01T09:50:06;102514.00;;;6.40
71564;BMP180;59391;52.504;13.438;2022-12-01T09:53:02;102513.00;;;6.40
71564;BMP180;59391;52.504;13.438;2022-12-01T09:55:33;102508.00;;;6.40
71564;BMP180;59391;52.504;13.438;2022-12-01T09:58:02;102510.00;;;6.40
71564;BMP180;59391;52.504;13.438;2022-12-01T10:00:35;102501.00;;;6.30
71564;BMP180;59391;52.504;13.438;2022-12-01T10:03:39;102514.00;;;6.40
71564;BMP180;59391;52.504;13.438;2022-12-01T10:06:28;102505.00;;;6.50
71564;BMP180;59391;52.504;13.438;2022-12-01T10:09:39;102509.00;;;6.50
71564;BMP180;59391;52.504;13.438;2022-12-01T10:12:16;102499.00;;;6.60
71564;BMP180;59391;52.504;13.438;2022-12-01T10:14:45;102492.00;;;6.60
71564;BMP180;59391;52.504;13.438;2022-12-01T10:17:39;102493.00;;;6.60
71564;BMP180;59391;52.504;13.438;2022-12-01T10:20:23;102499.00;;;6.60
71564;BMP180;59391;52.504;13.438;2022-12-01T10:23:21;102493.00;;;6.70
71564;BMP180;59391;52.504;13.438;2022-12-01T10:25:58;102498.00;;;6.70
71564;BMP180;59391;52.504;13.438;2022-12-01T10:31:20;102495.00;;;6.80
71564;BMP180;59391;52.504;13.438;2022-12-01T10:34:09;102504.00;;;6.80
71564;BMP180;59391;52.504;13.438;2022-12-01T10:36:36;102494.00;;;6.70
71564;BMP180;59391;52.504;13.438;2022-12-01T10:39:04;102493.00;;;6.60
71564;BMP180;59391;52.504;13.438;2022-12-01T10:41:35;102497.00;;;6.60
71564;BMP180;59391;52.504;13.438;2022-12-01T10:44:04;102493.00;;;6.60
71564;BMP180;59391;52.504;13.438;2022-12-01T10:46:43;102484.00;;;6.60
71564;BMP180;59391;52.504;13.438;2022-12-01T10:49:14;102485.00;;;6.60
71564;BMP180;59391;52.504;13.438;2022-12-01T10:51:57;102480.00;;;6.60
71564;BMP180;59391;52.504;13.438;2022-12-01T10:54:38;102483.00;;;6.60
71564;BMP180;59391;52.504;13.438;2022-12-01T10:57:13;102482.00;;;6.50
71564;BMP180;59391;52.504;13.438;2022-12-01T10:59:58;102473.00;;;6.50
71564;BMP180;59391;52.504;13.438;2022-12-01T11:02:27;102478.00;;;6.50
71564;BMP180;59391;52.504;13.438;2022-12-01T11:05:03;102478.00;;;6.50
71564;BMP180;59391;52.504;13.438;2022-12-01T11:07:41;102465.00;;;6.60
71564;BMP180;59391;52.504;13.438;2022-12-01T11:10:34;102461.00;;;6.60
71564;BMP180;59391;52.504;13.438;2022-12-01T11:13:25;102468.00;;;6.70
71564;BMP180;59391;52.504;13.438;2022-12-01T11:16:00;102470.00;;;6.70
71564;BMP180;59391;52.504;13.438;2022-12-01T11:18:37;102477.00;;;6.70
71564;BMP180;59391;52.504;13.438;2022-12-01T11:21:14;102481.00;;;6.60
71564;BMP180;59391;52.504;13.438;2022-12-01T11:23:50;102482.00;;;6.60
71564;BMP180;59391;52.504;13.438;2022-12-01T11:26:33;102462.00;;;6.60
71564;BMP180;59391;52.504;13.438;2022-12-01T11:29:03;102469.00;;;6.60
71564;BMP180;59391;52.504;13.438;2022-12-01T11:31:47;102469.00;;;6.50
71564;BMP180;59391;52.504;13.438;2022-12-01T11:34:33;102470.00;;;6.60
71564;BMP180;59391;52.504;13.438;2022-12-01T11:37:21;102469.00;;;6.60
71564;BMP180;59391;52.504;13.438;2022-12-01T11:39:48;102466.00;;;6.60
71564;BMP180;59391;52.504;13.438;2022-12-01T11:42:27;102465.00;;;6.60
71564;BMP180;59391;52.504;13.438;2022-12-01T11:45:17;102465.00;;;6.60
71564;BMP180;59391;52.504;13.438;2022-12-01T11:53:43;102460.00;;;6.60
71564;BMP180;59391;52.504;13.438;2022-12-01T11:56:21;102458.00;;;6.60
71564;BMP180;59391;52.504;13.438;2022-12-01T11:58:53;102457.00;;;6.60
71564;BMP180;59391;52.504;13.438;2022-12-01T12:01:49;102468.00;;;6.60
71564;BMP180;59391;52.504;13.438;2022-12-01T12:07:28;102450.00;;;6.50
71564;BMP180;59391;52.504;13.438;2022-12-01T12:10:29;102455.00;;;6.50
71564;BMP180;59391;52.504;13.438;2022-12-01T12:13:31;102457.00;;;6.50
71564;BMP180;59391;52.504;13.438;2022-12-01T12:16:15;102465.00;;;6.60
71564;BMP180;59391;52.504;13.438;2022-12-01T12:28:01;102456.00;;;6.70
71564;BMP180;59391;52.504;13.438;2022-12-01T12:30:39;102463.00;;;6.80
71564;BMP180;59391;52.504;13.438;2022-12-01T12:33:13;102458.00;;;6.80
71564;BMP180;59391;52.504;13.438;2022-12-01T12:36:05;102413.00;;;6.80
71564;BMP180;59391;52.504;13.438;2022-12-01T12:38:58;102458.00;;;6.80
71564;BMP180;59391;52.504;13.438;2022-12-01T12:41:51;102461.00;;;6.80
71564;BMP180;59391;52.504;13.438;2022-12-01T12:44:48;102442.00;;;6.80
71564;BMP180;59391;52.504;13.438;2022-12-01T12:47:56;102441.00;;;6.80
71564;BMP180;59391;52.504;13.438;2022-12-01T12:51:11;102452.00;;;6.80
71564;BMP180;59391;52.504;13.438;2022-12-01T12:53:50;102444.00;;;6.80
71564;BMP180;59391;52.504;13.438;2022-12-01T12:56:21;102448.00;;;6.90
71564;BMP180;59391;52.504;13.438;2022-12-01T12:59:15;102445.00;;;6.90
71564;BMP180;59391;52.504;13.438;2022-12-01T13:02:07;102454.00;;;7.00
71564;BMP180;59391;52.504;13.438;2022-12-01T13:07:49;102435.00;;;7.00
71564;BMP180;59391;52.504;13.438;2022-12-01T13:10:45;102427.00;;;7.10
71564;BMP180;59391;52.504;13.438;2022-12-01T13:13:26;102424.00;;;7.10
71564;BMP180;59391;52.504;13.438;2022-12-01T13:15:56;102446.00;;;7.10
71564;BMP180;59391;52.504;13.438;2022-12-01T13:18:43;102439.00;;;7.10
71564;BMP180;59391;52.504;13.438;2022-12-01T13:21:18;102436.00;;;7.10
71564;BMP180;59391;52.504;13.438;2022-12-01T13:23:45;102442.00;;;7.10
71564;BMP180;59391;52.504;13.438;2022-12-01T13:26:13;102449.00;;;7.10
71564;BMP180;59391;52.504;13.438;2022-12-01T13:28:50;102452.00;;;7.10
71564;BMP180;59391;52.504;13.438;2022-12-01T13:31:18;102449.00;;;7.10
71564;BMP180;59391;52.504;13.438;2022-12-01T13:33:58;102454.00;;;7.10
71564;BMP180;59391;52.504;13.438;2022-12-01T13:36:25;102447.00;;;7.10
71564;BMP180;59391;52.504;13.438;2022-12-01T13:39:17;102434.00;;;7.00
71564;BMP180;59391;52.504;13.438;2022-12-01T13:41:44;102445.00;;;7.00
71564;BMP180;59391;52.504;13.438;2022-12-01T13:44:27;102430.00;;;7.00
71564;BMP180;59391;52.504;13.438;2022-12-01T13:47:03;102444.00;;;7.00
71564;BMP180;59391;52.504;13.438;2022-12-01T13:49:48;102451.00;;;7.00
71564;BMP180;59391;52.504;13.438;2022-12-01T13:58:16;102445.00;;;6.90
71564;BMP180;59391;52.504;13.438;2022-12-01T14:00:41;102437.00;;;6.90
71564;BMP180;59391;52.504;13.438;2022-12-01T14:03:36;102440.00;;;6.90
71564;BMP180;59391;52.504;13.438;2022-12-01T14:06:08;102441.00;;;6.90
71564;BMP180;59391;52.504;13.438;2022-12-01T14:09:05;102435.00;;;6.90
71564;BMP180;59391;52.504;13.438;2022-12-01T14:11:33;102434.00;;;6.90
71564;BMP180;59391;52.504;13.438;2022-12-01T14:14:11;102438.00;;;6.80
71564;BMP180;59391;52.504;13.438;2022-12-01T14:16:54;102436.00;;;6.90
71564;BMP180;59391;52.504;13.438;2022-12-01T14:19:41;102417.00;;;6.80
71564;BMP180;59391;52.504;13.438;2022-12-01T14:22:37;102415.00;;;6.80
71564;BMP180;59391;52.504;13.438;2022-12-01T14:27:51;102442.00;;;6.80
71564;BMP180;59391;52.504;13.438;2022-12-01T14:33:42;102446.00;;;6.80
71564;BMP180;59391;52.504;13.438;2022-12-01T14:39:33;102436.00;;;6.80
71564;BMP180;59391;52.504;13.438;2022-12-01T14:44:53;102436.00;;;6.80
71564;BMP180;59391;52.504;13.438;2022-12-01T14:47:28;102426.00;;;6.80
71564;BMP180;59391;52.504;13.438;2022-12-01T14:50:19;102430.00;;;6.80
71564;BMP180;59391;52.504;13.438;2022-12-01T14:52:54;102442.00;;;6.80
71564;BMP180;59391;52.504;13.438;2022-12-01T14:55:42;102434.00;;;6.70
71564;BMP180;59391;52.504;13.438;2022-12-01T14:58:30;102442.00;;;6.80
71564;BMP180;59391;52.504;13.438;2022-12-01T15:01:09;102436.00;;;6.80
71564;BMP180;59391;52.504;13.438;2022-12-01T15:03:57;102428.00;;;6.80
71564;BMP180;59391;52.504;13.438;2022-12-01T15:06:26;102427.00;;;6.90
71564;BMP180;59391;52.504;13.438;2022-12-01T15:09:25;102430.00;;;6.90
71564;BMP180;59391;52.504;13.438;2022-12-01T15:11:56;102425.00;;;6.90
71564;BMP180;59391;52.504;13.438;2022-12-01T15:14:37;102424.00;;;6.90
71564;BMP180;59391;52.504;13.438;2022-12-01T15:17:05;102414.00;;;7.00
71564;BMP180;59391;52.504;13.438;2022-12-01T15:19:40;102415.00;;;7.00
71564;BMP180;59391;52.504;13.438;2022-12-01T15:22:14;102431.00;;;7.00
71564;BMP180;59391;52.504;13.438;2022-12-01T15:24:41;102416.00;;;7.00
71564;BMP180;59391;52.504;13.438;2022-12-01T15:27:30;102418.00;;;7.00
71564;BMP180;59391;52.504;13.438;2022-12-01T15:29:57;102427.00;;;7.00